Terminal Aerodrome Forecast
Issued by NWS

Home | Current Version | Previous Version | Text Only | Print | Product List | Glossary On
Versions: 1 2 3 4 5 6 7 8 9 10 11 12 13 14
685
FTUS46 KHNX 231739
TAFVIS
TAF
KVIS 231739Z 2318/2418 33005KT P6SM BKN019
     FM232100 29007KT P6SM SCT250
     FM240200 VRB04KT P6SM SCT150 BKN200=

USA.gov is the U.S. government's official web portal to all federal, state and local government web resources and services.